Etusivu
METAR-TAF:

METAR-TAF

Lentoasemat :

Estevan, Saskatchewan, Kanada

Leveyspiiri: 49-13N, Pituuspiiri: 102-58W, korkeus merenpinnasta: 572 m

Tämänhetkinen sää

Tämä raportti tehtiin 27 minuuttia sitten, kello 04.00 UTC
Tuuli 7 kn idästä
Lämpötila -10°C
Kosteus 92%
Ilmanpaine 1018 hPa
Näkyvyys: 14.5 km
selkeää

METAR: CYEN 270400Z AUTO 08007KT 9SM CLR M10/M11 A3006 RMK SLP224

Aika: 22:27 (04:27 UTC)

Sääennuste

Tämä raportti tehtiin 10 tuntia ja 49 minuuttia sitten, kello 17.38 UTC
Ennuste voimassa 26. päivästä klo 18 UTC - 26. päivään klo 24 UTC
Tuuli 10 kn idästä/kaakosta
Näkyvyys: 10 km
Hajonneita pilviä 7000 ft:n korkeudessa
Hajonneita pilviä 12000 ft:n korkeudessa

TAF: CYEN 261738Z 2618/2624 12010KT P6SM BKN070 BKN120 RMK FCST BASED ON AUTO OBS. NXT FCST WILL BE ISSUED AT 271145Z

Säähavainnot ja -ennusteet yli 4000 lentoasemalta (METAR- ja TAF-raportit).

Käytössä olevat sääasemat on merkitty karttaan keltaisilla ja punaisilla pisteillä.

Aseta hiiri pisteen päälle nähdäksesi sääaseman nimen.

Klikkaa sitten nähdäksesi säähavainnot ja -ennusteet.

Kartan vaihtaminen: klikkaa mustalla rastilla varustettuja vihreitä pisteitä, niin voit zoomata sisään; viivalla varustettua vihreää pistettä, niin voit zoomata ulos tai vihreitä nuolia, niin pääset viereisille kartoille.


METAR-TAF: